createdAt,value
2019-01-08T00:01:00.178Z,22.29
2019-01-08T00:03:26.527Z,22.27
2019-01-08T00:05:52.852Z,22.27
2019-01-08T00:08:19.243Z,22.23
2019-01-08T00:10:45.565Z,22.26
2019-01-08T00:13:11.891Z,22.19
2019-01-08T00:15:38.222Z,22.35
2019-01-08T00:18:04.630Z,22.32
2019-01-08T00:20:30.982Z,22.26
2019-01-08T00:22:57.349Z,22.36
2019-01-08T00:25:23.674Z,22.22
2019-01-08T00:27:50.046Z,22.21
2019-01-08T00:30:16.424Z,22.41
2019-01-08T00:32:42.671Z,22.64
2019-01-08T00:35:08.998Z,22.57
2019-01-08T00:37:35.386Z,22.39
2019-01-08T00:40:01.713Z,22.26
2019-01-08T00:42:28.046Z,22.50
2019-01-08T00:44:54.429Z,22.52
2019-01-08T00:47:20.775Z,22.56
2019-01-08T00:49:47.111Z,22.68
2019-01-08T00:52:13.439Z,22.83
2019-01-08T00:54:39.836Z,22.70
2019-01-08T00:57:06.167Z,22.52
2019-01-08T00:59:32.493Z,22.58
2019-01-08T01:01:58.829Z,22.76
2019-01-08T01:04:25.277Z,22.23
2019-01-08T01:06:51.656Z,21.17
2019-01-08T01:09:18.036Z,21.19
2019-01-08T01:11:44.437Z,20.91
2019-01-08T01:14:10.776Z,20.88
2019-01-08T01:16:37.111Z,20.44
2019-01-08T01:19:03.445Z,20.76
2019-01-08T01:21:29.784Z,20.75
2019-01-08T01:23:56.126Z,20.45
2019-01-08T01:26:22.535Z,20.42
2019-01-08T01:28:48.901Z,20.55
2019-01-08T01:31:15.294Z,20.61
2019-01-08T01:33:41.638Z,20.50
2019-01-08T01:36:07.999Z,20.23
2019-01-08T01:38:34.324Z,20.20
2019-01-08T01:41:00.708Z,20.26
2019-01-08T01:43:27.051Z,20.32
2019-01-08T01:45:53.513Z,20.42
2019-01-08T01:48:19.914Z,20.29
2019-01-08T01:50:46.310Z,20.26
2019-01-08T01:53:12.655Z,20.48
2019-01-08T01:55:38.985Z,20.50
2019-01-08T01:58:05.336Z,20.37
2019-01-08T02:00:31.665Z,20.39
2019-01-08T02:02:58.000Z,20.40
2019-01-08T02:05:24.317Z,20.19
2019-01-08T02:07:50.721Z,20.22
2019-01-08T02:10:17.050Z,20.19
2019-01-08T02:12:43.427Z,20.48
2019-01-08T02:15:09.751Z,20.36
2019-01-08T02:17:36.102Z,20.25
2019-01-08T02:20:02.432Z,20.09
2019-01-08T02:22:28.765Z,20.19
2019-01-08T02:24:55.150Z,20.07
2019-01-08T02:27:21.572Z,20.05
2019-01-08T02:29:47.858Z,19.94
2019-01-08T02:32:14.204Z,19.77
2019-01-08T02:34:40.655Z,19.53
2019-01-08T02:37:07.008Z,19.62
2019-01-08T02:39:33.360Z,19.66
2019-01-08T02:41:59.861Z,19.62
2019-01-08T02:44:26.160Z,19.55
2019-01-08T02:46:52.598Z,19.41
2019-01-08T02:49:18.913Z,19.26
2019-01-08T02:51:45.301Z,19.24
2019-01-08T02:54:11.642Z,19.38
2019-01-08T02:56:37.962Z,19.29
2019-01-08T02:59:04.355Z,19.51
2019-01-08T03:01:30.687Z,19.52
2019-01-08T03:03:57.016Z,19.29
2019-01-08T03:06:23.346Z,19.28
2019-01-08T03:08:49.684Z,19.40
2019-01-08T03:11:16.015Z,19.40
2019-01-08T03:13:42.334Z,19.49
2019-01-08T03:16:08.667Z,19.25
2019-01-08T03:18:35.018Z,19.29
2019-01-08T03:21:01.467Z,19.41
2019-01-08T03:23:27.735Z,19.46
2019-01-08T03:25:54.156Z,19.52
2019-01-08T03:28:20.450Z,19.36
2019-01-08T03:30:46.780Z,19.30
2019-01-08T03:33:13.178Z,19.33
2019-01-08T03:35:39.538Z,19.59
2019-01-08T03:38:05.891Z,19.17
2019-01-08T03:40:32.221Z,19.34
2019-01-08T03:42:58.538Z,19.18
2019-01-08T03:45:24.920Z,19.27
2019-01-08T03:47:51.266Z,19.07
2019-01-08T03:50:17.658Z,19.15
2019-01-08T03:52:44.038Z,19.00
2019-01-08T03:55:10.341Z,19.05
2019-01-08T03:57:36.673Z,19.71
2019-01-08T04:00:03.016Z,19.43
2019-01-08T04:02:29.372Z,19.22
2019-01-08T04:04:55.798Z,19.62
2019-01-08T04:07:22.130Z,19.71
2019-01-08T04:09:48.512Z,21.32
2019-01-08T04:12:14.842Z,21.00
2019-01-08T04:14:41.214Z,20.48
2019-01-08T04:17:07.630Z,20.11
2019-01-08T04:19:34.008Z,19.71
2019-01-08T04:22:00.504Z,19.63
2019-01-08T04:24:26.830Z,19.62
2019-01-08T04:26:53.162Z,19.59
2019-01-08T04:29:19.596Z,19.85
2019-01-08T04:31:45.874Z,19.91
2019-01-08T04:34:12.256Z,20.05
2019-01-08T04:36:38.645Z,20.29
2019-01-08T04:39:04.990Z,20.80
2019-01-08T04:41:31.335Z,21.85
2019-01-08T04:43:57.666Z,21.10
2019-01-08T04:46:24.004Z,20.83
2019-01-08T04:48:50.342Z,20.64
2019-01-08T04:51:16.672Z,20.81
2019-01-08T04:53:43.078Z,20.90
2019-01-08T04:56:09.442Z,20.87
2019-01-08T04:58:35.735Z,20.91
2019-01-08T05:01:02.064Z,20.67
2019-01-08T05:03:28.411Z,20.34
2019-01-08T05:05:54.764Z,20.36
2019-01-08T05:08:21.106Z,20.34
2019-01-08T05:10:47.437Z,20.30
2019-01-08T05:13:13.766Z,20.12
2019-01-08T05:15:40.135Z,20.24
2019-01-08T05:18:06.472Z,20.08
2019-01-08T05:20:32.877Z,20.17
2019-01-08T05:22:59.237Z,20.00
2019-01-08T05:25:25.567Z,19.94
2019-01-08T05:27:52.241Z,19.93
2019-01-08T05:30:18.609Z,19.67
2019-01-08T05:32:45.007Z,19.69
2019-01-08T05:35:11.290Z,20.05
2019-01-08T05:37:37.619Z,20.64
2019-01-08T05:40:04.011Z,20.49
2019-01-08T05:42:30.341Z,19.92
2019-01-08T05:44:56.843Z,20.19
2019-01-08T05:47:23.110Z,19.94
2019-01-08T05:49:49.491Z,20.15
2019-01-08T05:52:15.831Z,19.84
2019-01-08T05:54:42.162Z,20.03
2019-01-08T05:57:08.512Z,20.39
2019-01-08T05:59:34.890Z,19.56
2019-01-08T06:02:01.283Z,19.75
2019-01-08T06:04:27.633Z,19.65
2019-01-08T06:06:53.970Z,19.43
2019-01-08T06:09:20.312Z,19.44
2019-01-08T06:11:46.668Z,19.42
2019-01-08T06:14:12.999Z,19.88
2019-01-08T06:16:39.362Z,20.01
2019-01-08T06:19:05.702Z,19.95
2019-01-08T06:21:32.067Z,19.93
2019-01-08T06:23:58.493Z,19.64
2019-01-08T06:26:24.882Z,19.64
2019-01-08T06:28:51.210Z,19.59
2019-01-08T06:31:17.568Z,19.94
2019-01-08T06:33:43.936Z,20.22
2019-01-08T06:36:10.396Z,20.39
2019-01-08T06:38:36.692Z,20.06
2019-01-08T06:41:03.032Z,20.29
2019-01-08T06:43:29.402Z,20.33
2019-01-08T06:45:55.768Z,20.13
2019-01-08T06:48:22.166Z,19.84
2019-01-08T06:50:55.798Z,20.39
2019-01-08T06:53:14.867Z,20.07
2019-01-08T06:55:41.291Z,20.19
2019-01-08T06:58:07.693Z,19.76
2019-01-08T07:00:34.075Z,19.96
2019-01-08T07:03:00.463Z,20.08
2019-01-08T07:05:26.826Z,20.36
2019-01-08T07:07:53.217Z,20.52
2019-01-08T07:10:19.548Z,20.31
2019-01-08T07:12:45.881Z,20.52
2019-01-08T07:15:12.211Z,20.37
2019-01-08T07:17:38.617Z,20.10
2019-01-08T07:20:04.960Z,19.84
2019-01-08T07:22:31.366Z,20.94
2019-01-08T07:24:57.722Z,20.39
2019-01-08T07:27:24.091Z,19.88
2019-01-08T07:29:50.415Z,20.13
2019-01-08T07:32:16.767Z,20.09
2019-01-08T07:34:43.165Z,20.17
2019-01-08T07:37:09.585Z,20.26
2019-01-08T07:39:36.907Z,20.00
2019-01-08T07:42:03.239Z,20.17
2019-01-08T07:44:29.612Z,20.33
2019-01-08T07:46:55.952Z,20.57
2019-01-08T07:49:22.292Z,20.51
2019-01-08T07:51:48.793Z,20.24
2019-01-08T07:54:15.171Z,20.43
2019-01-08T07:56:41.970Z,20.92
2019-01-08T07:59:08.313Z,20.87
2019-01-08T08:01:34.733Z,20.73
2019-01-08T08:04:01.157Z,20.62
2019-01-08T08:06:27.567Z,20.84
2019-01-08T08:08:53.932Z,20.40
2019-01-08T08:11:20.262Z,20.78
2019-01-08T08:13:46.626Z,20.88
2019-01-08T08:16:13.017Z,21.52
2019-01-08T08:18:39.409Z,21.71
2019-01-08T08:21:05.890Z,21.00
2019-01-08T08:23:32.267Z,21.44
2019-01-08T08:25:58.608Z,21.67
2019-01-08T08:28:24.986Z,20.65
2019-01-08T08:30:58.651Z,21.46
2019-01-08T08:33:17.788Z,21.78
2019-01-08T08:35:44.185Z,21.06
2019-01-08T08:38:10.605Z,21.93
2019-01-08T08:40:36.935Z,22.35
2019-01-08T08:43:03.276Z,21.15
2019-01-08T08:45:29.696Z,21.68
2019-01-08T08:47:56.049Z,21.46
2019-01-08T08:50:29.848Z,21.29
2019-01-08T08:52:56.322Z,21.19
2019-01-08T08:55:22.624Z,21.58
2019-01-08T08:57:48.958Z,20.45
2019-01-08T09:00:15.306Z,21.13
2019-01-08T09:02:41.689Z,21.94
2019-01-08T09:05:08.092Z,21.92
2019-01-08T09:07:34.427Z,20.93
2019-01-08T09:10:00.762Z,19.77
2019-01-08T09:12:27.127Z,20.51
2019-01-08T09:14:53.482Z,19.94
2019-01-08T09:17:19.896Z,19.85
2019-01-08T09:19:46.256Z,20.07
2019-01-08T09:22:12.595Z,19.73
2019-01-08T09:24:38.918Z,19.61
2019-01-08T09:27:05.250Z,19.55
2019-01-08T09:29:31.910Z,20.00
2019-01-08T09:31:57.954Z,19.79
2019-01-08T09:34:24.309Z,19.52
2019-01-08T09:36:50.680Z,19.74
2019-01-08T09:39:16.992Z,19.49
2019-01-08T09:41:43.506Z,19.46
2019-01-08T09:44:09.937Z,19.96
2019-01-08T09:46:36.289Z,19.10
2019-01-08T09:49:02.883Z,19.72
2019-01-08T09:51:29.236Z,19.68
2019-01-08T09:53:55.617Z,19.49
2019-01-08T09:56:21.955Z,20.37
2019-01-08T09:58:48.333Z,19.94
2019-01-08T10:01:14.744Z,19.93
2019-01-08T10:03:41.116Z,19.60
2019-01-08T10:06:07.514Z,19.76
2019-01-08T10:08:33.845Z,19.71
2019-01-08T10:11:00.139Z,19.18
2019-01-08T10:13:26.517Z,19.25
2019-01-08T10:15:52.848Z,19.15
2019-01-08T10:18:19.182Z,19.24
2019-01-08T10:20:45.630Z,19.30
2019-01-08T10:23:11.887Z,19.36
2019-01-08T10:25:38.216Z,19.51
2019-01-08T10:28:04.554Z,18.97
2019-01-08T10:30:30.885Z,18.43
2019-01-08T10:32:57.219Z,18.91
2019-01-08T10:35:24.676Z,18.78
2019-01-08T10:37:51.015Z,19.10
2019-01-08T10:40:17.406Z,19.25
2019-01-08T10:42:43.759Z,19.06
2019-01-08T10:45:10.137Z,19.18
2019-01-08T10:47:36.471Z,19.33
2019-01-08T10:50:02.801Z,19.15
2019-01-08T10:52:29.194Z,18.76
2019-01-08T10:54:55.535Z,19.15
2019-01-08T10:57:22.002Z,19.43
2019-01-08T10:59:48.388Z,19.02
2019-01-08T11:02:15.886Z,19.19
2019-01-08T11:04:42.218Z,19.00
2019-01-08T11:07:08.601Z,18.77
2019-01-08T11:09:34.939Z,18.84
2019-01-08T11:12:01.270Z,19.30
2019-01-08T11:14:27.655Z,19.10
2019-01-08T11:16:54.055Z,19.05
2019-01-08T11:19:20.499Z,19.09
2019-01-08T11:21:46.899Z,19.17
2019-01-08T11:24:13.302Z,19.44
2019-01-08T11:26:39.664Z,18.94
2019-01-08T11:29:06.080Z,19.23
2019-01-08T11:31:32.512Z,19.10
2019-01-08T11:33:58.940Z,19.50
2019-01-08T11:36:25.324Z,18.96
2019-01-08T11:38:51.675Z,19.26
2019-01-08T11:41:18.024Z,19.12
2019-01-08T11:43:44.533Z,19.07
2019-01-08T11:46:10.921Z,18.98
2019-01-08T11:48:37.248Z,18.70
2019-01-08T11:51:03.591Z,19.59
2019-01-08T11:53:29.920Z,19.26
2019-01-08T11:55:56.284Z,19.26
2019-01-08T11:58:22.655Z,19.25
2019-01-08T12:00:49.030Z,19.43
2019-01-08T12:03:15.436Z,19.22
2019-01-08T12:05:41.767Z,19.22
2019-01-08T12:08:08.098Z,18.94
2019-01-08T12:10:34.443Z,19.02
2019-01-08T12:13:00.787Z,18.93
2019-01-08T12:15:27.171Z,19.07
2019-01-08T12:17:53.512Z,18.89
2019-01-08T12:20:19.886Z,18.95
2019-01-08T12:22:46.171Z,19.04
2019-01-08T12:25:12.566Z,18.86
2019-01-08T12:27:39.003Z,18.82
2019-01-08T12:30:05.331Z,18.90
2019-01-08T12:32:31.865Z,18.90
2019-01-08T12:34:58.222Z,18.84
2019-01-08T12:37:24.564Z,18.87
2019-01-08T12:39:50.933Z,18.78
2019-01-08T12:42:17.317Z,18.72
2019-01-08T12:44:43.794Z,18.59
2019-01-08T12:47:10.278Z,18.90
2019-01-08T12:49:36.649Z,19.30
2019-01-08T12:52:03.009Z,18.88
2019-01-08T12:54:31.698Z,18.66
2019-01-08T12:56:58.096Z,19.05
2019-01-08T12:59:26.599Z,19.10
2019-01-08T13:01:53.024Z,19.10
2019-01-08T13:04:19.369Z,18.86
2019-01-08T13:06:45.759Z,18.64
2019-01-08T13:09:12.099Z,18.72
2019-01-08T13:11:38.434Z,18.46
2019-01-08T13:14:04.880Z,18.45
2019-01-08T13:16:31.258Z,18.56
2019-01-08T13:18:57.694Z,18.29
2019-01-08T13:21:26.433Z,18.33
2019-01-08T13:23:52.769Z,18.13
2019-01-08T13:26:19.108Z,18.07
2019-01-08T13:28:45.454Z,18.27
2019-01-08T13:31:12.003Z,18.58
2019-01-08T13:33:38.331Z,18.47
2019-01-08T13:36:07.809Z,18.45
2019-01-08T13:38:34.120Z,18.36
2019-01-08T13:41:00.522Z,18.43
2019-01-08T13:43:26.905Z,18.12
2019-01-08T13:45:53.288Z,18.43
2019-01-08T13:48:19.667Z,18.06
2019-01-08T13:50:46.089Z,18.16
2019-01-08T13:53:12.825Z,18.20
2019-01-08T13:55:39.162Z,18.32
2019-01-08T13:58:05.898Z,17.79
2019-01-08T14:00:32.182Z,18.27
2019-01-08T14:03:00.823Z,18.32
2019-01-08T14:05:27.145Z,18.65
2019-01-08T14:07:53.545Z,17.79
2019-01-08T14:10:20.001Z,17.72
2019-01-08T14:12:46.364Z,17.71
2019-01-08T14:15:12.761Z,18.17
2019-01-08T14:17:39.113Z,18.09
2019-01-08T14:20:05.495Z,17.57
2019-01-08T14:22:31.823Z,17.81
2019-01-08T14:24:58.143Z,18.43
2019-01-08T14:27:24.518Z,18.10
2019-01-08T14:29:50.966Z,18.60
2019-01-08T14:32:17.394Z,18.91
2019-01-08T14:34:44.739Z,18.73
2019-01-08T14:37:11.118Z,18.79
2019-01-08T14:39:38.519Z,18.35
2019-01-08T14:42:06.608Z,18.04
2019-01-08T14:44:31.208Z,18.17
2019-01-08T14:46:57.629Z,18.33
2019-01-08T14:49:23.966Z,18.38
2019-01-08T14:51:50.374Z,18.60
2019-01-08T14:54:16.690Z,18.42
2019-01-08T14:56:45.554Z,18.26
2019-01-08T14:59:11.878Z,17.91
2019-01-08T15:01:38.223Z,18.15
2019-01-08T15:04:04.624Z,18.01
2019-01-08T15:06:30.957Z,18.07
2019-01-08T15:08:57.303Z,18.34
2019-01-08T15:11:23.658Z,18.10
2019-01-08T15:13:51.010Z,17.99
2019-01-08T15:16:17.385Z,17.82
2019-01-08T15:18:43.822Z,17.80
2019-01-08T15:21:10.245Z,17.90
2019-01-08T15:23:36.609Z,18.11
2019-01-08T15:26:02.944Z,18.30
2019-01-08T15:28:29.440Z,18.30
2019-01-08T15:30:55.771Z,17.97
2019-01-08T15:33:22.127Z,17.98
2019-01-08T15:35:48.455Z,18.39
2019-01-08T15:38:14.793Z,17.91
2019-01-08T15:40:41.103Z,18.17
2019-01-08T15:43:07.584Z,17.85
2019-01-08T15:45:33.929Z,18.14
2019-01-08T15:48:00.260Z,18.02
2019-01-08T15:50:26.600Z,18.35
2019-01-08T15:52:52.931Z,18.23
2019-01-08T15:55:19.322Z,18.17
2019-01-08T15:57:45.823Z,18.11
2019-01-08T16:00:12.037Z,18.22
2019-01-08T16:02:38.479Z,18.06
2019-01-08T16:05:04.819Z,18.45
2019-01-08T16:07:31.215Z,18.18
2019-01-08T16:09:57.543Z,18.25
2019-01-08T16:12:23.865Z,18.20
2019-01-08T16:14:50.334Z,18.03
2019-01-08T16:17:17.100Z,18.12
2019-01-08T16:19:43.010Z,17.99
2019-01-08T16:22:09.348Z,18.07
2019-01-08T16:24:35.691Z,18.37
2019-01-08T16:27:02.022Z,18.20
2019-01-08T16:29:28.390Z,17.87
2019-01-08T16:31:54.753Z,18.03
2019-01-08T16:34:21.085Z,18.04
2019-01-08T16:36:48.353Z,18.03
2019-01-08T16:39:13.761Z,18.00
2019-01-08T16:41:40.103Z,17.83
2019-01-08T16:44:06.457Z,18.10
2019-01-08T16:46:32.814Z,18.23
2019-01-08T16:48:59.203Z,18.38
2019-01-08T16:51:25.681Z,18.66
2019-01-08T16:53:51.951Z,18.61
2019-01-08T16:56:19.733Z,18.94
2019-01-08T16:58:44.720Z,18.23
2019-01-08T17:01:11.059Z,18.14
2019-01-08T17:03:37.381Z,18.11
2019-01-08T17:06:03.709Z,18.34
2019-01-08T17:08:30.047Z,18.20
2019-01-08T17:10:56.419Z,18.31
2019-01-08T17:13:22.792Z,18.26
2019-01-08T17:15:49.119Z,18.24
2019-01-08T17:18:15.472Z,18.20
2019-01-08T17:20:41.817Z,18.11
2019-01-08T17:23:08.179Z,18.02
2019-01-08T17:25:34.559Z,18.07
2019-01-08T17:28:00.951Z,18.07
2019-01-08T17:30:27.278Z,18.07
2019-01-08T17:32:53.638Z,18.14
2019-01-08T17:35:19.975Z,18.07
2019-01-08T17:37:46.316Z,18.11
2019-01-08T17:40:12.725Z,17.91
2019-01-08T17:42:39.103Z,18.19
2019-01-08T17:45:05.495Z,18.03
2019-01-08T17:47:31.831Z,18.01
2019-01-08T17:49:58.404Z,17.89
2019-01-08T17:52:24.718Z,18.40
2019-01-08T17:54:51.063Z,18.02
2019-01-08T17:57:17.439Z,18.19
2019-01-08T17:59:43.769Z,18.07
2019-01-08T18:02:10.168Z,18.17
2019-01-08T18:04:36.515Z,18.22
2019-01-08T18:07:02.859Z,18.50
2019-01-08T18:09:29.259Z,18.54
2019-01-08T18:11:55.603Z,18.94
2019-01-08T18:14:21.961Z,19.17
2019-01-08T18:16:48.324Z,19.14
2019-01-08T18:19:14.648Z,19.23
2019-01-08T18:21:41.165Z,19.16
2019-01-08T18:24:07.482Z,19.08
2019-01-08T18:26:34.377Z,19.43
2019-01-08T18:29:00.246Z,19.44
2019-01-08T18:31:26.657Z,19.36
2019-01-08T18:33:53.000Z,19.48
2019-01-08T18:36:19.338Z,19.30
2019-01-08T18:38:45.686Z,19.50
2019-01-08T18:41:12.018Z,19.68
2019-01-08T18:43:38.380Z,19.71
2019-01-08T18:46:04.760Z,19.60
2019-01-08T18:48:31.124Z,19.61
2019-01-08T18:50:57.561Z,19.68
2019-01-08T18:53:24.074Z,19.68
2019-01-08T18:55:50.481Z,19.77
2019-01-08T18:58:16.816Z,19.91
2019-01-08T19:00:43.198Z,19.85
2019-01-08T19:03:09.594Z,20.05
2019-01-08T19:05:36.233Z,20.04
2019-01-08T19:08:02.605Z,19.99
2019-01-08T19:10:28.991Z,20.13
2019-01-08T19:12:55.381Z,19.96
2019-01-08T19:15:21.741Z,20.21
2019-01-08T19:17:48.075Z,20.18
2019-01-08T19:20:14.424Z,20.15
2019-01-08T19:22:40.747Z,20.35
2019-01-08T19:25:07.203Z,20.27
2019-01-08T19:27:33.589Z,20.49
2019-01-08T19:29:59.956Z,20.58
2019-01-08T19:32:26.317Z,20.39
2019-01-08T19:34:52.643Z,20.75
2019-01-08T19:37:19.027Z,20.58
2019-01-08T19:39:45.363Z,20.44
2019-01-08T19:42:11.807Z,20.65
2019-01-08T19:44:38.127Z,20.78
2019-01-08T19:47:04.469Z,20.91
2019-01-08T19:49:30.812Z,20.74
2019-01-08T19:51:57.205Z,20.82
2019-01-08T19:54:24.832Z,21.00
2019-01-08T19:56:49.966Z,20.82
2019-01-08T19:59:16.295Z,20.94
2019-01-08T20:01:42.635Z,21.11
2019-01-08T20:04:17.436Z,21.16
2019-01-08T20:06:35.441Z,20.97
2019-01-08T20:09:01.725Z,21.30
2019-01-08T20:11:28.111Z,21.18
2019-01-08T20:13:54.524Z,21.03
2019-01-08T20:16:20.904Z,21.29
2019-01-08T20:18:47.244Z,21.10
2019-01-08T20:21:13.660Z,21.45
2019-01-08T20:23:39.990Z,21.24
2019-01-08T20:26:06.378Z,21.41
2019-01-08T20:28:32.705Z,21.53
2019-01-08T20:30:59.037Z,21.55
2019-01-08T20:33:25.378Z,21.67
2019-01-08T20:35:54.162Z,21.88
2019-01-08T20:38:20.564Z,21.58
2019-01-08T20:40:48.690Z,21.98
2019-01-08T20:43:13.291Z,21.96
2019-01-08T20:45:39.621Z,21.95
2019-01-08T20:48:05.999Z,21.95
2019-01-08T20:50:32.359Z,21.81
2019-01-08T20:52:58.695Z,22.00
2019-01-08T20:55:25.025Z,22.01
2019-01-08T20:57:51.355Z,21.79
2019-01-08T21:00:17.749Z,22.03
2019-01-08T21:02:44.152Z,22.26
2019-01-08T21:05:10.534Z,21.96
2019-01-08T21:07:36.927Z,21.96
2019-01-08T21:10:03.277Z,21.94
2019-01-08T21:12:29.656Z,22.12
2019-01-08T21:14:55.986Z,22.10
2019-01-08T21:17:22.356Z,21.90
2019-01-08T21:19:48.684Z,22.17
2019-01-08T21:22:15.088Z,22.15
2019-01-08T21:24:41.462Z,22.20
2019-01-08T21:27:07.797Z,21.47
2019-01-08T21:29:34.125Z,22.30
2019-01-08T21:32:00.459Z,22.21
2019-01-08T21:34:26.802Z,22.46
2019-01-08T21:36:53.139Z,22.29
2019-01-08T21:39:19.464Z,22.33
2019-01-08T21:41:45.803Z,22.49
2019-01-08T21:44:12.134Z,22.27
2019-01-08T21:46:38.459Z,22.23
2019-01-08T21:49:04.847Z,22.48
2019-01-08T21:51:31.215Z,22.38
2019-01-08T21:53:57.554Z,22.55
2019-01-08T21:56:23.874Z,22.58
2019-01-08T21:58:50.275Z,22.66
2019-01-08T22:01:16.607Z,22.91
2019-01-08T22:03:42.957Z,22.71
2019-01-08T22:06:09.287Z,23.01
2019-01-08T22:08:35.669Z,22.71
2019-01-08T22:11:02.002Z,23.06
2019-01-08T22:13:29.529Z,22.80
2019-01-08T22:15:54.723Z,23.00
2019-01-08T22:18:21.065Z,23.19
2019-01-08T22:20:47.584Z,23.14
2019-01-08T22:23:13.913Z,23.19
2019-01-08T22:25:40.256Z,23.14
2019-01-08T22:28:06.612Z,23.14
2019-01-08T22:30:32.938Z,23.33
2019-01-08T22:32:59.350Z,23.32
2019-01-08T22:35:25.677Z,23.60
2019-01-08T22:37:51.998Z,23.35
2019-01-08T22:40:18.331Z,23.71
2019-01-08T22:42:44.661Z,23.61
2019-01-08T22:45:10.987Z,23.46
2019-01-08T22:47:37.334Z,23.74
2019-01-08T22:50:03.661Z,23.70
2019-01-08T22:52:29.999Z,23.87
2019-01-08T22:54:56.354Z,23.71
2019-01-08T22:57:22.719Z,23.68
2019-01-08T22:59:49.100Z,23.61
2019-01-08T23:02:15.441Z,24.10
2019-01-08T23:04:41.783Z,24.09
2019-01-08T23:07:08.115Z,24.14
2019-01-08T23:09:34.461Z,24.11
2019-01-08T23:12:00.791Z,23.99
2019-01-08T23:14:27.257Z,24.07
2019-01-08T23:16:53.532Z,24.10
2019-01-08T23:19:19.905Z,24.30
2019-01-08T23:21:46.235Z,24.44
2019-01-08T23:24:12.556Z,24.22
2019-01-08T23:26:38.899Z,24.14
2019-01-08T23:29:05.221Z,24.25
2019-01-08T23:31:31.558Z,24.37
2019-01-08T23:33:57.947Z,24.38
2019-01-08T23:36:24.282Z,24.55
2019-01-08T23:38:50.621Z,24.47
2019-01-08T23:41:16.960Z,24.05
2019-01-08T23:43:43.338Z,24.23
2019-01-08T23:46:09.704Z,24.05
2019-01-08T23:48:36.055Z,24.27
2019-01-08T23:51:02.447Z,23.96
2019-01-08T23:53:28.792Z,24.32
2019-01-08T23:55:55.230Z,24.06
2019-01-08T23:58:21.627Z,24.47
